Time;durP1;ratioP1;P1;durP2;ratioP2;P2;SDS_P1;SDS_P2;PMS_P1;PMS_P2;Temp;Humidity;BMP_temperature;BMP_pressure;BME280_temperature;BME280_humidity;BME280_pressure;Samples;Min_cycle;Max_cycle;Signal;HPM_P1;HPM_P2
2022/07/23 00:01:18;;;;;;;7.53;4.93;;;15.00;99.90;;;;;;5124602;27;20042;-71
2022/07/23 00:03:44;;;;;;;4.90;4.38;;;15.00;99.90;;;;;;5146913;27;20053;-71
2022/07/23 00:06:11;;;;;;;11.88;5.30;;;15.00;99.90;;;;;;5145384;27;20126;-70
2022/07/23 00:08:36;;;;;;;4.88;4.03;;;15.00;99.90;;;;;;5122458;27;20487;-71
2022/07/23 00:11:02;;;;;;;6.75;4.55;;;14.90;99.90;;;;;;5118999;27;20043;-71
2022/07/23 00:13:28;;;;;;;7.97;4.72;;;14.90;99.90;;;;;;5116726;27;20745;-71
2022/07/23 00:15:54;;;;;;;6.30;4.47;;;14.90;99.90;;;;;;5125336;27;20050;-70
2022/07/23 00:18:20;;;;;;;5.47;4.53;;;14.90;99.90;;;;;;5121495;27;21179;-70
2022/07/23 00:20:45;;;;;;;6.32;4.60;;;14.90;99.90;;;;;;5123531;27;20114;-71
2022/07/23 00:23:11;;;;;;;7.45;4.85;;;14.90;99.90;;;;;;5144946;27;20043;-70
2022/07/23 00:25:36;;;;;;;10.32;5.30;;;14.90;99.90;;;;;;5140391;27;20062;-70
2022/07/23 00:28:03;;;;;;;6.25;4.25;;;14.90;99.90;;;;;;5123639;27;20034;-70
2022/07/23 00:30:30;;;;;;;6.75;4.45;;;14.80;99.90;;;;;;5143218;27;20157;-71
2022/07/23 00:32:57;;;;;;;5.25;4.75;;;14.80;99.90;;;;;;5101772;27;20038;-71
2022/07/23 00:35:25;;;;;;;7.70;4.57;;;14.80;99.90;;;;;;5126548;27;20050;-70
2022/07/23 00:37:51;;;;;;;7.18;5.03;;;14.80;99.90;;;;;;5123891;27;20057;-71
2022/07/23 00:40:17;;;;;;;7.55;4.10;;;14.80;99.90;;;;;;5139992;27;20042;-71
2022/07/23 00:42:43;;;;;;;5.85;4.78;;;14.70;99.90;;;;;;5125898;27;20131;-70
2022/07/23 00:45:09;;;;;;;6.47;4.53;;;14.70;99.90;;;;;;5150649;27;20038;-70
2022/07/23 00:47:35;;;;;;;5.40;4.90;;;14.60;99.90;;;;;;5136275;27;20096;-70
2022/07/23 00:50:03;;;;;;;7.55;4.43;;;14.60;99.90;;;;;;5153520;27;20057;-70
2022/07/23 00:52:31;;;;;;;7.88;4.47;;;14.60;99.90;;;;;;5149448;27;20066;-71
2022/07/23 00:54:57;;;;;;;3.80;3.53;;;14.50;99.90;;;;;;5140427;27;20050;-70
2022/07/23 00:57:23;;;;;;;5.57;4.22;;;14.50;99.90;;;;;;5122427;27;20303;-71
2022/07/23 00:59:48;;;;;;;5.07;4.57;;;14.40;99.90;;;;;;5122265;27;20046;-70
2022/07/23 01:02:14;;;;;;;6.38;5.30;;;14.40;99.90;;;;;;5123420;27;20042;-70
2022/07/23 01:04:40;;;;;;;5.60;5.10;;;14.30;99.90;;;;;;5119125;27;20031;-71
2022/07/23 01:07:05;;;;;;;6.85;5.18;;;14.30;99.90;;;;;;5144267;27;20441;-71
2022/07/23 01:09:31;;;;;;;8.15;6.10;;;14.20;99.90;;;;;;5125596;27;20035;-71
2022/07/23 01:11:58;;;;;;;11.10;5.65;;;14.20;99.90;;;;;;5122900;27;20050;-70
2022/07/23 01:14:24;;;;;;;9.82;4.60;;;14.20;99.90;;;;;;5119681;27;20092;-70
2022/07/23 01:16:49;;;;;;;9.48;5.40;;;14.10;99.90;;;;;;5125441;27;20448;-70
2022/07/23 01:19:16;;;;;;;7.97;5.70;;;14.10;99.90;;;;;;5142900;27;20448;-70
2022/07/23 01:21:47;;;;;;;6.25;5.65;;;14.10;99.90;;;;;;5122958;27;20542;-71
2022/07/23 01:24:14;;;;;;;11.77;5.63;;;14.00;99.90;;;;;;5141577;27;20050;-70
2022/07/23 01:26:43;;;;;;;7.35;6.38;;;14.00;99.90;;;;;;5138431;27;20084;-71
2022/07/23 01:29:09;;;;;;;7.38;6.63;;;14.00;99.90;;;;;;5124089;27;20047;-70
2022/07/23 01:31:34;;;;;;;6.75;5.78;;;14.00;99.90;;;;;;5124253;27;20133;-70
2022/07/23 01:34:00;;;;;;;17.98;5.85;;;13.90;99.90;;;;;;5141556;27;20096;-70
2022/07/23 01:36:26;;;;;;;7.22;5.68;;;13.90;99.90;;;;;;5127872;27;20043;-70
2022/07/23 01:38:52;;;;;;;11.40;6.50;;;13.80;99.90;;;;;;5123006;27;20562;-70
2022/07/23 01:41:17;;;;;;;7.43;6.72;;;13.80;99.90;;;;;;5123581;27;20662;-71
2022/07/23 01:43:43;;;;;;;8.38;5.50;;;13.70;99.90;;;;;;5120719;27;20047;-71
2022/07/23 01:46:09;;;;;;;11.15;6.05;;;13.70;99.90;;;;;;5142126;27;20043;-71
2022/07/23 01:48:35;;;;;;;8.30;4.95;;;13.70;99.90;;;;;;5147165;27;20038;-71
2022/07/23 01:51:01;;;;;;;9.52;5.70;;;13.70;99.90;;;;;;5123899;27;20038;-71
2022/07/23 01:53:30;;;;;;;8.27;5.72;;;13.70;99.90;;;;;;5127150;27;20434;-71
2022/07/23 01:55:57;;;;;;;7.85;7.03;;;13.60;99.90;;;;;;5123880;27;20047;-71
2022/07/23 01:58:23;;;;;;;9.68;6.30;;;13.60;99.90;;;;;;5146984;27;20063;-71
2022/07/23 02:00:48;;;;;;;10.88;5.82;;;13.50;99.90;;;;;;5120121;27;20047;-71
2022/07/23 02:03:14;;;;;;;12.10;6.05;;;13.50;99.90;;;;;;5148286;27;20126;-71
2022/07/23 02:05:40;;;;;;;9.98;6.65;;;13.50;99.90;;;;;;5122765;27;20047;-71
2022/07/23 02:08:05;;;;;;;8.93;6.35;;;13.50;99.90;;;;;;5145707;27;20452;-71
2022/07/23 02:10:31;;;;;;;8.20;6.32;;;13.40;99.90;;;;;;5143813;27;20047;-71
2022/07/23 02:12:57;;;;;;;8.02;6.97;;;13.40;99.90;;;;;;5140560;27;20051;-71
2022/07/23 02:15:23;;;;;;;6.80;5.63;;;13.30;99.90;;;;;;5124232;27;20071;-71
2022/07/23 02:17:48;;;;;;;14.63;7.22;;;13.30;99.90;;;;;;5123579;27;20547;-71
2022/07/23 02:20:14;;;;;;;7.80;6.00;;;13.30;99.90;;;;;;5144850;27;20045;-71
2022/07/23 02:22:40;;;;;;;8.07;5.63;;;13.20;99.90;;;;;;5127897;27;20046;-70
2022/07/23 02:25:06;;;;;;;7.32;6.22;;;13.20;99.90;;;;;;5121883;27;20045;-70
2022/07/23 02:27:32;;;;;;;7.05;5.85;;;13.20;99.90;;;;;;5129405;27;20065;-71
2022/07/23 02:29:58;;;;;;;6.88;6.20;;;13.20;99.90;;;;;;5126607;27;20484;-71
2022/07/23 02:32:24;;;;;;;13.30;5.85;;;13.10;99.90;;;;;;5120505;27;20058;-70
2022/07/23 02:34:50;;;;;;;8.85;6.18;;;13.10;99.90;;;;;;5127278;27;20143;-71
2022/07/23 02:37:16;;;;;;;9.43;5.47;;;13.10;99.90;;;;;;5122872;27;20048;-71
2022/07/23 02:39:42;;;;;;;8.02;5.68;;;13.10;99.90;;;;;;5126544;27;20043;-71
2022/07/23 02:42:07;;;;;;;6.55;5.82;;;13.00;99.90;;;;;;5144530;27;20034;-70
2022/07/23 02:44:33;;;;;;;6.70;5.65;;;13.00;99.90;;;;;;5145741;27;20051;-71
2022/07/23 02:47:00;;;;;;;10.18;6.05;;;13.00;99.90;;;;;;5120937;27;20126;-71
2022/07/23 02:49:26;;;;;;;4.88;4.18;;;12.90;99.90;;;;;;5109894;27;20508;-70
2022/07/23 02:51:51;;;;;;;6.40;5.00;;;12.90;99.90;;;;;;5148045;27;20046;-71
2022/07/23 02:54:17;;;;;;;7.22;5.75;;;12.90;99.90;;;;;;5145418;27;21795;-71
2022/07/23 02:56:43;;;;;;;6.68;4.50;;;12.90;99.90;;;;;;5128945;27;20419;-70
2022/07/23 02:59:09;;;;;;;7.78;5.32;;;12.80;99.90;;;;;;5102981;27;20552;-70
2022/07/23 03:01:35;;;;;;;6.03;5.43;;;12.80;99.90;;;;;;5143940;27;20734;-71
2022/07/23 03:04:00;;;;;;;7.10;6.05;;;12.70;99.90;;;;;;5128372;27;20072;-70
2022/07/23 03:06:26;;;;;;;6.07;5.13;;;12.70;99.90;;;;;;5127289;27;20078;-70
2022/07/23 03:08:52;;;;;;;6.43;5.80;;;12.70;99.90;;;;;;5119508;27;20050;-70
2022/07/23 03:11:18;;;;;;;7.80;6.85;;;12.60;99.90;;;;;;5123872;27;20133;-70
2022/07/23 03:13:43;;;;;;;5.82;5.03;;;12.60;99.90;;;;;;5145371;27;20043;-70
2022/07/23 03:16:09;;;;;;;6.13;5.53;;;12.60;99.90;;;;;;5123877;27;20134;-70
2022/07/23 03:18:35;;;;;;;5.68;5.03;;;12.50;99.90;;;;;;5120641;27;20495;-70
2022/07/23 03:21:00;;;;;;;6.50;5.80;;;12.50;99.90;;;;;;5128995;27;20031;-70
2022/07/23 03:23:26;;;;;;;7.05;5.70;;;12.50;99.90;;;;;;5126791;27;20039;-70
2022/07/23 03:25:52;;;;;;;6.93;5.55;;;12.40;99.90;;;;;;5126495;27;20114;-70
2022/07/23 03:28:18;;;;;;;9.60;5.78;;;12.40;99.90;;;;;;5117157;27;20035;-70
2022/07/23 03:30:48;;;;;;;14.27;5.93;;;12.40;99.90;;;;;;5141298;27;20050;-70
2022/07/23 03:33:16;;;;;;;6.15;5.38;;;12.30;99.90;;;;;;5128971;27;20074;-70
2022/07/23 03:35:43;;;;;;;7.13;5.43;;;12.30;99.90;;;;;;5139402;27;20095;-70
2022/07/23 03:38:09;;;;;;;8.15;5.18;;;12.30;99.90;;;;;;5109955;27;20053;-71
2022/07/23 03:40:34;;;;;;;6.55;5.70;;;12.20;99.90;;;;;;5139824;27;20046;-71
2022/07/23 03:43:00;;;;;;;6.80;5.70;;;12.20;99.90;;;;;;5143074;27;20038;-70
2022/07/23 03:45:26;;;;;;;7.22;5.80;;;12.20;99.90;;;;;;5128099;27;20039;-70
2022/07/23 03:47:51;;;;;;;6.75;5.45;;;12.10;99.90;;;;;;5140289;27;20910;-70
2022/07/23 03:50:17;;;;;;;5.03;4.57;;;12.20;99.90;;;;;;5143988;27;20065;-71
2022/07/23 03:52:43;;;;;;;8.10;5.10;;;12.10;99.90;;;;;;5125430;27;20042;-71
2022/07/23 03:55:09;;;;;;;5.82;4.90;;;12.10;99.90;;;;;;5126155;27;20042;-71
2022/07/23 03:57:34;;;;;;;5.30;4.28;;;12.00;99.90;;;;;;5100105;27;20385;-70
2022/07/23 04:00:01;;;;;;;8.68;5.50;;;12.10;99.90;;;;;;5121048;27;20054;-70
2022/07/23 04:02:27;;;;;;;8.30;5.00;;;12.00;99.90;;;;;;5144600;27;20056;-71
2022/07/23 04:04:52;;;;;;;9.27;6.15;;;12.00;99.90;;;;;;5121752;27;20399;-70
2022/07/23 04:07:18;;;;;;;6.07;4.82;;;12.00;99.90;;;;;;5121702;27;20039;-71
2022/07/23 04:09:44;;;;;;;6.72;5.43;;;12.00;99.90;;;;;;5140891;27;20547;-71
2022/07/23 04:12:10;;;;;;;7.97;6.40;;;12.00;99.90;;;;;;5121381;27;20038;-70
2022/07/23 04:14:36;;;;;;;10.57;6.53;;;12.00;99.90;;;;;;5138685;27;20042;-71
2022/07/23 04:17:02;;;;;;;6.55;5.90;;;12.10;99.90;;;;;;5123010;27;20099;-71
2022/07/23 04:19:30;;;;;;;9.02;6.82;;;12.10;99.90;;;;;;5142893;27;20142;-72
2022/07/23 04:21:56;;;;;;;7.63;6.28;;;12.10;99.90;;;;;;5120596;27;20082;-72
2022/07/23 04:24:21;;;;;;;9.18;6.95;;;12.40;99.90;;;;;;5125397;27;20046;-71
2022/07/23 04:26:47;;;;;;;9.07;7.25;;;12.60;99.90;;;;;;5127291;27;20380;-73
2022/07/23 04:29:13;;;;;;;8.27;6.60;;;12.90;99.90;;;;;;5120547;27;20046;-72
2022/07/23 04:31:38;;;;;;;7.20;6.10;;;13.00;99.90;;;;;;5124023;27;20077;-72
2022/07/23 04:34:04;;;;;;;9.00;6.75;;;13.20;99.90;;;;;;5121835;27;20043;-73
2022/07/23 04:36:30;;;;;;;9.82;6.75;;;13.20;99.90;;;;;;5121043;27;20037;-71
2022/07/23 04:38:56;;;;;;;6.68;5.47;;;13.10;99.90;;;;;;5121251;27;20042;-71
2022/07/23 04:41:23;;;;;;;8.85;7.20;;;13.00;99.90;;;;;;5120730;27;20043;-71
2022/07/23 04:43:48;;;;;;;8.00;6.78;;;12.80;99.90;;;;;;5122678;27;20046;-71
2022/07/23 04:46:14;;;;;;;7.43;6.07;;;12.80;99.90;;;;;;5122712;27;20039;-70
2022/07/23 04:48:41;;;;;;;11.50;6.35;;;12.70;99.90;;;;;;5144952;27;20044;-70
2022/07/23 04:51:07;;;;;;;9.15;6.25;;;12.70;99.90;;;;;;5125899;27;20509;-71
2022/07/23 04:53:33;;;;;;;8.32;6.65;;;12.70;99.90;;;;;;5121903;27;20034;-71
2022/07/23 04:55:58;;;;;;;10.00;6.03;;;12.70;99.90;;;;;;5120805;27;20046;-71
2022/07/23 04:58:24;;;;;;;9.75;7.53;;;12.70;99.90;;;;;;5124198;27;20055;-71
2022/07/23 05:00:49;;;;;;;8.23;6.13;;;12.70;99.90;;;;;;5123411;27;20054;-71
2022/07/23 05:03:15;;;;;;;8.25;6.93;;;12.70;99.90;;;;;;5126472;27;20070;-71
2022/07/23 05:05:41;;;;;;;8.27;7.30;;;12.70;99.90;;;;;;5121922;27;20066;-71
2022/07/23 05:08:07;;;;;;;10.18;7.70;;;12.70;99.90;;;;;;5124127;27;20151;-71
2022/07/23 05:10:33;;;;;;;11.63;7.50;;;12.70;99.90;;;;;;5127791;27;20073;-70
2022/07/23 05:12:58;;;;;;;8.50;6.35;;;12.70;99.90;;;;;;5126746;27;20043;-70
2022/07/23 05:15:24;;;;;;;16.98;7.63;;;12.70;99.90;;;;;;5126893;27;20703;-71
2022/07/23 05:17:50;;;;;;;11.25;7.25;;;12.80;99.90;;;;;;5129688;27;20110;-71
2022/07/23 05:20:16;;;;;;;12.52;6.82;;;12.80;99.90;;;;;;5127265;27;20039;-71
2022/07/23 05:22:42;;;;;;;10.77;6.68;;;12.90;99.90;;;;;;5128503;27;20109;-71
2022/07/23 05:25:08;;;;;;;10.15;7.60;;;12.90;99.90;;;;;;5129022;27;20058;-72
2022/07/23 05:27:34;;;;;;;11.30;8.02;;;12.90;99.90;;;;;;5127275;27;20057;-71
2022/07/23 05:29:59;;;;;;;10.40;7.57;;;13.00;99.90;;;;;;5130912;27;20046;-72
2022/07/23 05:32:25;;;;;;;8.70;7.57;;;13.10;99.90;;;;;;5127468;27;20117;-71
2022/07/23 05:34:51;;;;;;;10.35;7.10;;;13.10;99.90;;;;;;5124747;27;20038;-71
2022/07/23 05:37:17;;;;;;;19.73;8.18;;;13.20;99.90;;;;;;5128934;27;20038;-71
2022/07/23 05:39:43;;;;;;;8.93;7.72;;;13.20;99.90;;;;;;5126350;27;20049;-72
2022/07/23 05:42:08;;;;;;;15.20;7.43;;;13.30;99.90;;;;;;5109676;27;20050;-74
2022/07/23 05:44:34;;;;;;;13.02;7.22;;;13.30;99.90;;;;;;5130392;27;20042;-74
2022/07/23 05:46:59;;;;;;;13.35;7.65;;;13.30;99.90;;;;;;5127047;27;20047;-74
2022/07/23 05:49:25;;;;;;;21.10;7.43;;;13.40;99.90;;;;;;5126158;27;20074;-74
2022/07/23 05:51:51;;;;;;;12.88;7.28;;;13.50;99.90;;;;;;5126655;27;20042;-72
2022/07/23 05:54:17;;;;;;;27.42;6.90;;;13.50;99.90;;;;;;5125004;27;20038;-73
2022/07/23 05:56:43;;;;;;;9.23;6.35;;;13.60;99.90;;;;;;5126521;27;20043;-73
2022/07/23 05:59:09;;;;;;;15.57;6.90;;;13.60;99.90;;;;;;5127044;27;20061;-73
2022/07/23 06:01:34;;;;;;;11.68;7.00;;;13.70;99.90;;;;;;5129010;27;20043;-71
2022/07/23 06:04:00;;;;;;;13.07;6.72;;;13.90;99.90;;;;;;5125191;27;20090;-72
2022/07/23 06:06:26;;;;;;;20.35;7.20;;;13.90;99.90;;;;;;5106655;27;20395;-72
2022/07/23 06:08:52;;;;;;;10.82;7.35;;;14.00;99.90;;;;;;5129917;27;20045;-72
2022/07/23 06:11:18;;;;;;;8.35;6.00;;;14.00;99.90;;;;;;5124472;27;20055;-72
2022/07/23 06:13:45;;;;;;;14.20;5.95;;;14.10;99.90;;;;;;5127905;27;20088;-72
2022/07/23 06:16:10;;;;;;;6.80;5.10;;;14.20;99.90;;;;;;5125559;27;20758;-72
2022/07/23 06:18:36;;;;;;;12.75;6.55;;;14.30;99.90;;;;;;5123495;27;20053;-72
2022/07/23 06:21:02;;;;;;;7.05;6.32;;;14.40;99.90;;;;;;5127879;27;20145;-71
2022/07/23 06:23:27;;;;;;;9.50;5.13;;;14.50;99.90;;;;;;5123511;27;20050;-72
2022/07/23 06:25:53;;;;;;;7.93;5.75;;;14.50;99.90;;;;;;5124589;27;20054;-72
2022/07/23 06:28:19;;;;;;;7.97;5.13;;;14.60;99.90;;;;;;5144508;27;20541;-72
2022/07/23 06:30:46;;;;;;;7.00;5.28;;;14.60;99.90;;;;;;5125563;27;20042;-72
2022/07/23 06:33:12;;;;;;;10.38;5.75;;;14.70;99.90;;;;;;5123876;27;20054;-74
2022/07/23 06:35:38;;;;;;;8.02;4.15;;;14.80;99.90;;;;;;5127537;27;20055;-73
2022/07/23 06:38:04;;;;;;;15.75;5.07;;;14.90;99.90;;;;;;5122853;27;20094;-72
2022/07/23 06:40:30;;;;;;;8.15;5.18;;;15.00;99.90;;;;;;5121639;27;20670;-72
2022/07/23 06:42:56;;;;;;;5.03;4.53;;;15.10;99.90;;;;;;5120092;27;20039;-72
2022/07/23 06:45:22;;;;;;;10.40;4.72;;;15.20;99.90;;;;;;5122365;27;20034;-73
2022/07/23 06:47:47;;;;;;;7.60;4.53;;;15.40;99.90;;;;;;5127483;27;20042;-72
2022/07/23 06:50:13;;;;;;;6.63;3.78;;;15.60;99.90;;;;;;5145765;27;20449;-72
2022/07/23 06:52:39;;;;;;;7.63;4.68;;;15.80;99.90;;;;;;5127576;27;20043;-72
2022/07/23 06:55:05;;;;;;;5.05;3.95;;;16.00;99.90;;;;;;5123109;27;20057;-72
2022/07/23 06:57:30;;;;;;;4.30;3.10;;;16.30;99.90;;;;;;5124421;27;20050;-73
2022/07/23 06:59:56;;;;;;;5.88;4.05;;;16.60;99.90;;;;;;5125070;27;20046;-72
2022/07/23 07:02:24;;;;;;;3.88;3.30;;;16.90;99.90;;;;;;5124617;27;20063;-73
2022/07/23 07:04:49;;;;;;;6.68;3.17;;;17.10;99.90;;;;;;5124407;27;20070;-73
2022/07/23 07:07:15;;;;;;;4.95;2.83;;;17.40;99.90;;;;;;5117489;27;20096;-73
2022/07/23 07:09:41;;;;;;;3.92;2.30;;;17.70;99.90;;;;;;5120862;27;20088;-69
2022/07/23 07:12:08;;;;;;;2.65;2.17;;;17.90;99.90;;;;;;5121480;27;20061;-70
2022/07/23 07:14:34;;;;;;;3.15;2.80;;;18.10;99.90;;;;;;5120459;27;20563;-70
2022/07/23 07:17:00;;;;;;;2.65;2.45;;;18.40;99.90;;;;;;5145078;27;20046;-70
2022/07/23 07:19:25;;;;;;;2.10;1.88;;;18.60;99.90;;;;;;5121448;27;20039;-70
2022/07/23 07:21:51;;;;;;;8.20;2.22;;;18.90;99.90;;;;;;5127733;27;20051;-72
2022/07/23 07:24:16;;;;;;;4.60;1.77;;;19.00;99.90;;;;;;5126116;27;20467;-70
2022/07/23 07:26:42;;;;;;;2.10;1.83;;;19.30;99.90;;;;;;5120896;27;20043;-71
2022/07/23 07:29:08;;;;;;;2.35;1.75;;;19.30;99.90;;;;;;5120112;27;20407;-71
2022/07/23 07:31:33;;;;;;;2.20;1.65;;;19.50;99.90;;;;;;5124789;27;20137;-71
2022/07/23 07:33:59;;;;;;;3.03;1.90;;;19.70;99.90;;;;;;5123480;27;20127;-70
2022/07/23 07:36:25;;;;;;;3.40;2.00;;;19.90;99.90;;;;;;5125176;27;20425;-72
2022/07/23 07:38:50;;;;;;;1.70;1.60;;;20.00;99.90;;;;;;5126257;27;20091;-71
2022/07/23 07:41:16;;;;;;;3.70;1.40;;;20.20;99.90;;;;;;5124674;27;20039;-71
2022/07/23 07:43:42;;;;;;;2.78;2.03;;;20.20;99.90;;;;;;5127037;27;20075;-71
2022/07/23 07:46:11;;;;;;;2.00;1.40;;;20.20;99.90;;;;;;5121935;27;20042;-72
2022/07/23 07:48:39;;;;;;;4.75;1.95;;;20.30;99.90;;;;;;5113294;27;20046;-70
2022/07/23 07:51:05;;;;;;;1.13;1.02;;;20.50;99.90;;;;;;5125751;27;20087;-71
2022/07/23 07:53:31;;;;;;;1.30;1.20;;;20.80;99.90;;;;;;5125052;27;20043;-71
2022/07/23 07:55:56;;;;;;;3.38;1.40;;;20.80;99.90;;;;;;5122576;27;20078;-71
2022/07/23 07:58:22;;;;;;;5.20;1.30;;;20.80;99.90;;;;;;5140888;27;20566;-71
2022/07/23 08:00:48;;;;;;;1.70;1.35;;;21.00;99.90;;;;;;5140331;27;20046;-71
2022/07/23 08:03:13;;;;;;;4.07;1.83;;;21.20;99.90;;;;;;5108031;27;20050;-71
2022/07/23 08:05:40;;;;;;;4.55;2.20;;;21.40;99.90;;;;;;5126715;27;20038;-71
2022/07/23 08:08:06;;;;;;;3.92;2.38;;;21.30;99.90;;;;;;5127024;27;20407;-71
2022/07/23 08:10:32;;;;;;;3.63;1.83;;;21.20;99.90;;;;;;5121717;27;20057;-70
2022/07/23 08:12:58;;;;;;;2.22;1.67;;;21.00;99.90;;;;;;5122562;27;20575;-71
2022/07/23 08:15:26;;;;;;;3.72;1.63;;;20.80;99.90;;;;;;5122651;27;20042;-71
2022/07/23 08:17:52;;;;;;;2.17;1.63;;;20.60;99.90;;;;;;5124252;27;20070;-71
2022/07/23 08:20:20;;;;;;;3.35;2.00;;;20.50;99.90;;;;;;5126587;27;20042;-71
2022/07/23 08:22:51;;;;;;;1.63;1.45;;;20.40;99.90;;;;;;5118107;27;20117;-71
2022/07/23 08:25:26;;;;;;;5.53;2.03;;;20.30;99.90;;;;;;5140584;27;20065;-71
2022/07/23 08:27:52;;;;;;;3.58;2.00;;;20.30;99.90;;;;;;5122984;27;20506;-70
2022/07/23 08:30:18;;;;;;;1.60;1.50;;;20.10;99.90;;;;;;5122631;27;20110;-71
2022/07/23 08:32:48;;;;;;;2.63;1.90;;;20.00;99.90;;;;;;5124171;27;20074;-70
2022/07/23 08:35:14;;;;;;;4.07;1.90;;;20.00;99.90;;;;;;5140197;27;20100;-70
2022/07/23 08:37:40;;;;;;;1.45;1.35;;;20.00;99.90;;;;;;5122137;27;20043;-71
2022/07/23 08:40:06;;;;;;;2.70;1.65;;;19.90;99.90;;;;;;5142496;27;20034;-70
2022/07/23 08:42:35;;;;;;;1.50;1.23;;;20.10;99.90;;;;;;5140778;27;20030;-70
2022/07/23 08:45:02;;;;;;;2.90;1.75;;;20.40;99.90;;;;;;5125578;27;20035;-70
2022/07/23 08:47:29;;;;;;;3.53;2.05;;;20.60;99.90;;;;;;5135541;27;20046;-71
2022/07/23 08:49:59;;;;;;;2.97;1.80;;;20.70;99.90;;;;;;5123653;27;20673;-72
2022/07/23 08:52:25;;;;;;;1.80;1.53;;;20.90;99.90;;;;;;5123805;27;20114;-71
2022/07/23 08:54:52;;;;;;;1.77;1.67;;;21.30;99.90;;;;;;5121860;27;20303;-71
2022/07/23 08:57:18;;;;;;;1.63;1.53;;;21.70;99.90;;;;;;5126984;27;20047;-71
2022/07/23 08:59:45;;;;;;;1.75;1.42;;;21.50;99.90;;;;;;5124063;27;20038;-71
2022/07/23 09:02:12;;;;;;;1.30;1.20;;;21.50;99.90;;;;;;5139301;27;20088;-71
2022/07/23 09:04:39;;;;;;;1.70;1.60;;;21.40;99.90;;;;;;5120702;27;20058;-71
2022/07/23 09:07:04;;;;;;;1.27;1.23;;;21.30;99.90;;;;;;5118767;27;20059;-71
2022/07/23 09:09:31;;;;;;;4.18;1.70;;;21.10;99.90;;;;;;5124413;27;21304;-72
2022/07/23 09:12:10;;;;;;;1.92;1.52;;;21.00;99.90;;;;;;5107259;27;20034;-72
2022/07/23 09:14:41;;;;;;;4.30;1.42;;;20.80;99.90;;;;;;5125417;27;20043;-72
2022/07/23 09:17:15;;;;;;;1.52;1.42;;;21.00;99.90;;;;;;5121656;27;20047;-71
2022/07/23 09:19:42;;;;;;;1.85;1.42;;;21.30;99.90;;;;;;5121397;27;20050;-71
2022/07/23 09:22:20;;;;;;;2.35;1.40;;;21.50;99.90;;;;;;5115767;27;20051;-69
2022/07/23 09:25:08;;;;;;;1.30;1.20;;;21.80;99.90;;;;;;5121964;28;20150;-69
2022/07/23 09:27:53;;;;;;;0.95;0.95;;;22.20;99.30;;;;;;5120165;27;20058;-69
2022/07/23 09:30:21;;;;;;;5.60;1.60;;;22.20;93.20;;;;;;5124440;27;20062;-68
2022/07/23 09:33:06;;;;;;;;;;;21.80;99.90;;;;;;5126499;27;20103;-68
2022/07/23 09:35:53;;;;;;;15.38;2.05;;;21.80;99.90;;;;;;5117478;27;19974;-70
2022/07/23 09:38:21;;;;;;;1.40;1.30;;;21.90;99.90;;;;;;5126078;27;20084;-70
2022/07/23 09:41:08;;;;;;;1.48;1.20;;;22.10;99.90;;;;;;5126523;27;20595;-70
2022/07/23 09:43:34;;;;;;;1.33;1.23;;;22.50;99.90;;;;;;5120324;27;20059;-70
2022/07/23 09:46:19;;;;;;;5.00;1.60;;;22.70;99.90;;;;;;5120392;27;20042;-70
2022/07/23 09:48:45;;;;;;;1.70;1.60;;;22.70;99.90;;;;;;5127571;27;20089;-71
2022/07/23 09:51:12;;;;;;;2.03;1.38;;;22.90;99.90;;;;;;5123079;27;20077;-70
2022/07/23 09:53:38;;;;;;;2.22;1.52;;;23.00;97.80;;;;;;5103149;27;20058;-71
2022/07/23 09:56:05;;;;;;;1.42;1.15;;;23.10;96.70;;;;;;5119898;27;20049;-70
2022/07/23 09:58:31;;;;;;;1.75;1.55;;;23.20;95.40;;;;;;5125665;27;20379;-71
2022/07/23 10:00:58;;;;;;;3.67;1.23;;;23.30;96.50;;;;;;5120862;27;20047;-70
2022/07/23 10:03:23;;;;;;;7.00;1.67;;;23.20;90.90;;;;;;5119162;27;20039;-70
2022/07/23 10:05:51;;;;;;;3.05;1.55;;;23.20;95.40;;;;;;5113786;27;20047;-71
2022/07/23 10:08:19;;;;;;;2.38;1.65;;;23.10;93.70;;;;;;5117614;27;20078;-70
2022/07/23 10:10:48;;;;;;;1.30;1.10;;;23.30;94.70;;;;;;5113672;27;20047;-70
2022/07/23 10:15:54;;;;;;;2.90;1.50;;;23.30;96.10;;;;;;5130311;27;20539;-71
2022/07/23 10:18:20;;;;;;;7.30;2.08;;;23.20;93.80;;;;;;5119564;27;20126;-70
2022/07/23 10:20:47;;;;;;;1.50;1.40;;;23.10;90.60;;;;;;5128915;27;20054;-70
2022/07/23 10:23:37;;;;;;;4.20;1.58;;;23.10;97.10;;;;;;5116137;27;20047;-70
2022/07/23 10:26:22;;;;;;;6.13;2.15;;;23.00;93.30;;;;;;5124590;27;20474;-70
2022/07/23 10:29:00;;;;;;;1.77;1.20;;;23.20;91.40;;;;;;5098514;27;20053;-70
2022/07/23 10:31:35;;;;;;;2.53;1.63;;;23.30;97.30;;;;;;5115041;27;20773;-70
2022/07/23 10:34:24;;;;;;;3.90;1.33;;;23.20;90.90;;;;;;5120389;27;20046;-71
2022/07/23 10:37:02;;;;;;;2.15;1.50;;;23.20;90.70;;;;;;5122495;27;20074;-70
2022/07/23 10:39:32;;;;;;;2.67;1.48;;;23.20;92.20;;;;;;5124953;27;20055;-71
2022/07/23 10:42:12;;;;;;;6.50;1.67;;;23.30;94.10;;;;;;5119409;27;20051;-70
2022/07/23 10:44:43;;;;;;;1.60;1.48;;;23.30;91.20;;;;;;5125885;27;20051;-71
2022/07/23 10:49:36;;;;;;;2.38;1.50;;;23.20;91.00;;;;;;5123967;27;20047;-71
2022/07/23 10:52:14;;;;;;;2.67;1.70;;;23.20;89.30;;;;;;5116849;27;20053;-71
2022/07/23 10:54:51;;;;;;;1.67;1.48;;;23.30;84.00;;;;;;5113861;27;20055;-71
2022/07/23 10:57:25;;;;;;;1.42;1.30;;;23.40;91.00;;;;;;5117370;27;20055;-71
2022/07/23 11:00:12;;;;;;;1.65;1.50;;;23.50;88.90;;;;;;5121121;27;20081;-71
2022/07/23 11:02:39;;;;;;;1.92;1.40;;;23.40;86.90;;;;;;5122004;27;20579;-71
2022/07/23 11:05:06;;;;;;;;;;;23.40;91.50;;;;;;5121764;27;20051;-71
2022/07/23 11:07:33;;;;;;;1.40;1.30;;;23.40;86.90;;;;;;5119086;27;19927;-71
2022/07/23 11:09:59;;;;;;;1.90;1.23;;;23.30;92.40;;;;;;5117316;27;20053;-71
2022/07/23 11:12:27;;;;;;;4.57;2.63;;;23.30;92.30;;;;;;5120182;27;20400;-71
2022/07/23 11:15:10;;;;;;;1.55;1.35;;;23.50;92.70;;;;;;5120785;27;20058;-71
2022/07/23 11:17:42;;;;;;;2.55;1.83;;;23.60;90.90;;;;;;5121742;27;20043;-72
2022/07/23 11:20:12;;;;;;;1.63;1.52;;;23.60;90.90;;;;;;5120281;27;20031;-71
2022/07/23 11:22:44;;;;;;;2.75;1.88;;;23.50;92.20;;;;;;5117154;27;20056;-72
2022/07/23 11:25:22;;;;;;;2.22;1.83;;;23.50;93.50;;;;;;5127783;27;20493;-72
2022/07/23 11:27:51;;;;;;;1.80;1.70;;;23.40;95.70;;;;;;5122139;27;20040;-71
2022/07/23 11:30:28;;;;;;;2.92;1.83;;;23.40;93.30;;;;;;5122948;27;20047;-71
2022/07/23 11:33:14;;;;;;;1.83;1.70;;;23.50;86.10;;;;;;5116353;27;20213;-71
2022/07/23 11:35:43;;;;;;;3.70;2.30;;;23.60;94.30;;;;;;5113072;27;20074;-72
2022/07/23 11:38:14;;;;;;;2.65;2.00;;;23.50;94.50;;;;;;5117318;27;20404;-73
2022/07/23 11:40:40;;;;;;;5.15;2.13;;;23.50;93.00;;;;;;5115766;27;20163;-73
2022/07/23 11:43:11;;;;;;;1.90;1.80;;;23.50;91.60;;;;;;5123184;27;20149;-73
2022/07/23 11:45:39;;;;;;;4.97;2.17;;;23.60;96.00;;;;;;5121597;27;20479;-72
2022/07/23 11:48:08;;;;;;;2.35;2.15;;;23.70;95.50;;;;;;5119531;27;20050;-72
2022/07/23 11:50:36;;;;;;;2.17;1.98;;;23.70;94.20;;;;;;5118361;27;20047;-72
2022/07/23 11:53:03;;;;;;;3.70;2.35;;;23.70;94.70;;;;;;5104433;27;20039;-72
2022/07/23 11:55:29;;;;;;;5.60;2.20;;;23.50;89.10;;;;;;5117693;27;20054;-71
2022/07/23 11:57:55;;;;;;;2.50;2.30;;;23.50;92.20;;;;;;5114370;27;20046;-72
2022/07/23 12:00:26;;;;;;;3.13;2.40;;;23.50;93.30;;;;;;5132115;27;20051;-71
2022/07/23 12:02:58;;;;;;;4.30;2.70;;;23.50;92.50;;;;;;5115919;27;20042;-70
2022/07/23 12:05:34;;;;;;;3.88;2.22;;;23.60;93.70;;;;;;5114145;27;20043;-71
2022/07/23 12:08:01;;;;;;;2.70;2.50;;;23.70;92.00;;;;;;5111301;27;20057;-71
2022/07/23 12:10:38;;;;;;;6.60;2.40;;;23.70;91.60;;;;;;5117043;27;20055;-71
2022/07/23 12:13:06;;;;;;;3.33;2.72;;;23.60;91.60;;;;;;5114009;27;20066;-70
2022/07/23 12:15:37;;;;;;;3.25;2.95;;;23.60;94.60;;;;;;5114079;27;20805;-71
2022/07/23 12:18:03;;;;;;;5.97;2.63;;;23.60;91.70;;;;;;5112251;27;20040;-70
2022/07/23 12:20:41;;;;;;;3.22;1.95;;;23.60;95.50;;;;;;5120907;27;20054;-70
2022/07/23 12:23:09;;;;;;;2.17;1.98;;;23.70;90.60;;;;;;5130715;27;20047;-71
2022/07/23 12:25:36;;;;;;;;;;;23.70;94.30;;;;;;5116041;27;20555;-71
2022/07/23 12:28:12;;;;;;;2.67;2.38;;;23.70;91.20;;;;;;5120127;27;19919;-72
2022/07/23 12:30:45;;;;;;;3.10;2.30;;;23.80;93.50;;;;;;5116652;27;20043;-71
2022/07/23 12:33:13;;;;;;;3.78;2.40;;;23.80;92.30;;;;;;5113882;27;20047;-71
2022/07/23 12:35:42;;;;;;;2.33;2.17;;;23.80;92.10;;;;;;5115458;27;20403;-71
2022/07/23 12:38:10;;;;;;;2.85;2.50;;;23.70;94.20;;;;;;5115151;27;20054;-70
2022/07/23 12:40:46;;;;;;;4.45;2.97;;;23.70;94.30;;;;;;5117629;27;20085;-70
2022/07/23 12:43:24;;;;;;;7.80;2.85;;;23.60;93.40;;;;;;5119478;27;20058;-70
2022/07/23 12:45:56;;;;;;;2.72;2.20;;;23.60;97.80;;;;;;5121532;27;20058;-71
2022/07/23 12:48:34;;;;;;;8.68;2.72;;;23.70;97.30;;;;;;5117807;27;20039;-71
2022/07/23 12:51:14;;;;;;;4.80;3.15;;;23.70;93.10;;;;;;5120860;27;20044;-71
2022/07/23 12:53:47;;;;;;;3.40;2.50;;;23.70;94.20;;;;;;5127463;27;20142;-71